San Ramon de la Nueva Oran, Argentina
Current Conditions -  °F | °C
As of 8:00 PM on Sunday 23 Nov 2014 (Local Time) from SLYA Reporting Station
Scattered Clouds Scattered Clouds  
Wind Chill: 72°   Ceiling: Unl
Heat Index: 72°   Visibility: 6mi
Dew Point: 64°   Wind: 14mph
Humidity: 78%   Direction: 50°NE
Pressure: 29.83"   Gusts: NA
Location:  23.13°S, 64.33°W
Report Text: SLYA 232300Z 05012KT 9999 SCT025 SCT200 22/18 Q1010
Loading
Personal Weather Stations






























Interactive Weather Map New forecast layout! Learn more

10-Day Weather Forecast

Advertisements
Track Severe Weather on mobile